AAL808 KMEM-KAVL
Flight info
| Callsign | AAL808 |
|---|---|
| Flight time | N/A |
| Altitude | 35000 |
| Route | ELVIS4 ETWOO KAVL |
| Aircraft | B738/M-VGDW/C |
Departure
| Time | 2026-05-06 15:54 |
|---|---|
| Airport | Memphis International Airport (KMEM) |
Arrival
| Time | N/A |
|---|---|
| Airport | Asheville Regional Airport (KAVL) |
| Time | Latitude | Longitude | Altitude | Speed | Heading |
|---|---|---|---|---|---|
| 2026-05-06 15:35 | 35.04304 | -89.97907 | 298 ft | 0 kts | 299° |
| 2026-05-06 15:46 | 35.04303 | -89.97903 | 298 ft | 2 kts | 299° |
| 2026-05-06 15:46 | 35.04295 | -89.97887 | 298 ft | 2 kts | 299° |
| 2026-05-06 15:46 | 35.04290 | -89.97875 | 298 ft | 0 kts | 299° |
| 2026-05-06 15:46 | 35.04285 | -89.97862 | 299 ft | 2 kts | 265° |
| 2026-05-06 15:47 | 35.04290 | -89.97844 | 298 ft | 2 kts | 225° |
| 2026-05-06 15:47 | 35.04303 | -89.97835 | 298 ft | 1 kts | 186° |
| 2026-05-06 15:47 | 35.04310 | -89.97835 | 298 ft | 1 kts | 175° |
| 2026-05-06 15:47 | 35.04313 | -89.97835 | 298 ft | 0 kts | 178° |
| 2026-05-06 15:50 | 35.04243 | -89.97832 | 299 ft | 22 kts | 178° |
| 2026-05-06 15:50 | 35.04013 | -89.97830 | 304 ft | 39 kts | 179° |
| 2026-05-06 15:51 | 35.03756 | -89.97831 | 309 ft | 35 kts | 180° |
| 2026-05-06 15:51 | 35.03516 | -89.97823 | 317 ft | 33 kts | 178° |
| 2026-05-06 15:51 | 35.03284 | -89.97819 | 322 ft | 32 kts | 176° |
| 2026-05-06 15:51 | 35.03061 | -89.97812 | 328 ft | 33 kts | 181° |
| 2026-05-06 15:52 | 35.02821 | -89.97810 | 334 ft | 33 kts | 180° |
| 2026-05-06 15:52 | 35.02608 | -89.97808 | 341 ft | 27 kts | 178° |
| 2026-05-06 15:52 | 35.02441 | -89.97797 | 344 ft | 13 kts | 157° |
| 2026-05-06 15:52 | 35.02424 | -89.97778 | 344 ft | 0 kts | 117° |
| 2026-05-06 15:53 | 35.02422 | -89.97772 | 344 ft | 7 kts | 110° |
| 2026-05-06 15:53 | 35.02417 | -89.97613 | 339 ft | 21 kts | 80° |
| 2026-05-06 15:53 | 35.02572 | -89.97561 | 332 ft | 35 kts | 352° |
| 2026-05-06 15:53 | 35.03080 | -89.97568 | 325 ft | 110 kts | 359° |
| 2026-05-06 15:54 | 35.04070 | -89.97604 | 357 ft | 165 kts | 356° |
| 2026-05-06 15:54 | 35.05286 | -89.97746 | 669 ft | 190 kts | 356° |
| 2026-05-06 15:54 | 35.06688 | -89.97708 | 1014 ft | 209 kts | 8° |
| 2026-05-06 15:54 | 35.08188 | -89.97417 | 1277 ft | 229 kts | 11° |
| 2026-05-06 15:55 | 35.09796 | -89.97061 | 1674 ft | 239 kts | 11° |
| 2026-05-06 15:55 | 35.11360 | -89.96437 | 2060 ft | 243 kts | 32° |
| 2026-05-06 15:55 | 35.12503 | -89.94843 | 2201 ft | 256 kts | 66° |
| 2026-05-06 15:55 | 35.12739 | -89.92700 | 2545 ft | 261 kts | 96° |
| 2026-05-06 15:56 | 35.12295 | -89.90566 | 2937 ft | 262 kts | 105° |
| 2026-05-06 15:56 | 35.11821 | -89.88375 | 3622 ft | 269 kts | 102° |
| 2026-05-06 15:56 | 35.11485 | -89.86118 | 4259 ft | 279 kts | 99° |
| 2026-05-06 15:56 | 35.11216 | -89.83765 | 4921 ft | 287 kts | 98° |
| 2026-05-06 15:57 | 35.10938 | -89.81296 | 5578 ft | 295 kts | 100° |
| 2026-05-06 15:57 | 35.10643 | -89.78816 | 6276 ft | 301 kts | 101° |
| 2026-05-06 15:57 | 35.10322 | -89.76257 | 6967 ft | 306 kts | 102° |
| 2026-05-06 15:57 | 35.09986 | -89.73692 | 7668 ft | 311 kts | 102° |
| 2026-05-06 15:58 | 35.09640 | -89.71069 | 8300 ft | 317 kts | 102° |
| 2026-05-06 15:58 | 35.09301 | -89.68388 | 8973 ft | 322 kts | 102° |
| 2026-05-06 15:58 | 35.08968 | -89.65684 | 9572 ft | 328 kts | 102° |
| 2026-05-06 15:58 | 35.08643 | -89.62939 | 10225 ft | 332 kts | 101° |
| 2026-05-06 15:59 | 35.08304 | -89.60060 | 10474 ft | 351 kts | 101° |
| 2026-05-06 15:59 | 35.07949 | -89.57069 | 10683 ft | 370 kts | 101° |
| 2026-05-06 15:59 | 35.07555 | -89.53878 | 10922 ft | 387 kts | 102° |
| 2026-05-06 15:59 | 35.07128 | -89.50575 | 11379 ft | 395 kts | 102° |
| 2026-05-06 16:00 | 35.06688 | -89.47236 | 11824 ft | 404 kts | 102° |
| 2026-05-06 16:00 | 35.06242 | -89.43855 | 12422 ft | 407 kts | 102° |
| 2026-05-06 16:00 | 35.05794 | -89.40455 | 12970 ft | 411 kts | 103° |
| 2026-05-06 16:00 | 35.05339 | -89.36987 | 13524 ft | 415 kts | 102° |
| 2026-05-06 16:01 | 35.04899 | -89.33511 | 13997 ft | 421 kts | 103° |
| 2026-05-06 16:01 | 35.04466 | -89.29947 | 14633 ft | 421 kts | 103° |
| 2026-05-06 16:01 | 35.04053 | -89.26452 | 15281 ft | 420 kts | 102° |
| 2026-05-06 16:01 | 35.03599 | -89.22964 | 15837 ft | 420 kts | 103° |
| 2026-05-06 16:02 | 35.03062 | -89.19424 | 16238 ft | 426 kts | 104° |
| 2026-05-06 16:02 | 35.02654 | -89.15837 | 16526 ft | 438 kts | 96° |
| 2026-05-06 16:02 | 35.02626 | -89.12105 | 16921 ft | 446 kts | 88° |
| 2026-05-06 16:02 | 35.02997 | -89.08284 | 17309 ft | 452 kts | 82° |
| 2026-05-06 16:03 | 35.03565 | -89.04539 | 17638 ft | 458 kts | 79° |
| 2026-05-06 16:03 | 35.04242 | -89.00738 | 18133 ft | 458 kts | 77° |
| 2026-05-06 16:03 | 35.04941 | -88.96935 | 18612 ft | 460 kts | 78° |
| 2026-05-06 16:03 | 35.05621 | -88.93126 | 19021 ft | 463 kts | 78° |
| 2026-05-06 16:04 | 35.06278 | -88.89286 | 19376 ft | 467 kts | 78° |
| 2026-05-06 16:04 | 35.06908 | -88.85382 | 19762 ft | 471 kts | 79° |
| 2026-05-06 16:04 | 35.07510 | -88.81442 | 20057 ft | 477 kts | 80° |
| 2026-05-06 16:04 | 35.08074 | -88.77490 | 20436 ft | 480 kts | 81° |
| 2026-05-06 16:05 | 35.08616 | -88.73438 | 20803 ft | 483 kts | 81° |
| 2026-05-06 16:05 | 35.09141 | -88.69403 | 21119 ft | 487 kts | 81° |
| 2026-05-06 16:05 | 35.09679 | -88.65295 | 21470 ft | 490 kts | 80° |
| 2026-05-06 16:05 | 35.10234 | -88.61234 | 21750 ft | 494 kts | 80° |
| 2026-05-06 16:06 | 35.10812 | -88.57075 | 22127 ft | 496 kts | 80° |
| 2026-05-06 16:06 | 35.11396 | -88.52913 | 22435 ft | 499 kts | 80° |
| 2026-05-06 16:06 | 35.12001 | -88.48732 | 22728 ft | 503 kts | 79° |
| 2026-05-06 16:06 | 35.12606 | -88.44570 | 22978 ft | 507 kts | 79° |
| 2026-05-06 16:07 | 35.13217 | -88.40284 | 23298 ft | 509 kts | 79° |
| 2026-05-06 16:07 | 35.13818 | -88.36078 | 23657 ft | 510 kts | 79° |
| 2026-05-06 16:07 | 35.14440 | -88.31802 | 24059 ft | 510 kts | 80° |
| 2026-05-06 16:07 | 35.15068 | -88.27501 | 24278 ft | 514 kts | 80° |
| 2026-05-06 16:08 | 35.15685 | -88.23257 | 24591 ft | 516 kts | 79° |
| 2026-05-06 16:08 | 35.16305 | -88.18954 | 24823 ft | 519 kts | 80° |
| 2026-05-06 16:08 | 35.16935 | -88.14560 | 25096 ft | 522 kts | 80° |
| 2026-05-06 16:08 | 35.17565 | -88.10198 | 25445 ft | 522 kts | 79° |
| 2026-05-06 16:09 | 35.18184 | -88.05870 | 25684 ft | 525 kts | 79° |
| 2026-05-06 16:09 | 35.18812 | -88.01439 | 25939 ft | 527 kts | 80° |
| 2026-05-06 16:09 | 35.19432 | -87.97059 | 26216 ft | 529 kts | 79° |
| 2026-05-06 16:09 | 35.20061 | -87.92641 | 26430 ft | 532 kts | 79° |
| 2026-05-06 16:10 | 35.20701 | -87.88133 | 26693 ft | 534 kts | 80° |
| 2026-05-06 16:10 | 35.21323 | -87.83709 | 26897 ft | 537 kts | 80° |
| 2026-05-06 16:10 | 35.21959 | -87.79185 | 27161 ft | 539 kts | 80° |
| 2026-05-06 16:10 | 35.22587 | -87.74697 | 27411 ft | 541 kts | 80° |
| 2026-05-06 16:11 | 35.23230 | -87.70152 | 27597 ft | 544 kts | 80° |
| 2026-05-06 16:11 | 35.23864 | -87.65601 | 27854 ft | 545 kts | 80° |
| 2026-05-06 16:11 | 35.24492 | -87.61073 | 28069 ft | 548 kts | 80° |
| 2026-05-06 16:11 | 35.25124 | -87.56488 | 28382 ft | 547 kts | 80° |
| 2026-05-06 16:12 | 35.25757 | -87.51882 | 28608 ft | 549 kts | 80° |
| 2026-05-06 16:12 | 35.26392 | -87.47271 | 28774 ft | 552 kts | 80° |
| 2026-05-06 16:12 | 35.27035 | -87.42618 | 29041 ft | 553 kts | 79° |
| 2026-05-06 16:12 | 35.27673 | -87.38031 | 29315 ft | 554 kts | 79° |
| 2026-05-06 16:13 | 35.28305 | -87.33415 | 29568 ft | 555 kts | 80° |
| 2026-05-06 16:13 | 35.28949 | -87.28705 | 29748 ft | 556 kts | 80° |
| 2026-05-06 16:13 | 35.29573 | -87.24088 | 30057 ft | 555 kts | 80° |
| 2026-05-06 16:13 | 35.30195 | -87.19408 | 30199 ft | 558 kts | 81° |
| 2026-05-06 16:14 | 35.30822 | -87.14677 | 30341 ft | 561 kts | 80° |
| 2026-05-06 16:14 | 35.31438 | -87.10011 | 30538 ft | 562 kts | 81° |
| 2026-05-06 16:14 | 35.32068 | -87.05268 | 30716 ft | 564 kts | 80° |
| 2026-05-06 16:14 | 35.32700 | -87.00562 | 30870 ft | 566 kts | 80° |
| 2026-05-06 16:15 | 35.33341 | -86.95744 | 31052 ft | 567 kts | 80° |
| 2026-05-06 16:15 | 35.33968 | -86.90987 | 31357 ft | 566 kts | 79° |
| 2026-05-06 16:15 | 35.34592 | -86.86250 | 31677 ft | 564 kts | 79° |
| 2026-05-06 16:15 | 35.35223 | -86.81486 | 32020 ft | 561 kts | 79° |
| 2026-05-06 16:16 | 35.35838 | -86.76830 | 32283 ft | 561 kts | 80° |
| 2026-05-06 16:16 | 35.36465 | -86.72103 | 32608 ft | 559 kts | 79° |
| 2026-05-06 16:16 | 35.37082 | -86.67394 | 32852 ft | 559 kts | 80° |
| 2026-05-06 16:16 | 35.37685 | -86.62726 | 33033 ft | 560 kts | 80° |
| 2026-05-06 16:17 | 35.38294 | -86.57990 | 33301 ft | 559 kts | 80° |
| 2026-05-06 16:17 | 35.38890 | -86.53312 | 33570 ft | 558 kts | 80° |
| 2026-05-06 16:17 | 35.39489 | -86.48627 | 33873 ft | 557 kts | 79° |
| 2026-05-06 16:17 | 35.40090 | -86.44001 | 34075 ft | 558 kts | 79° |
| 2026-05-06 16:18 | 35.40699 | -86.39310 | 34290 ft | 559 kts | 79° |
| 2026-05-06 16:18 | 35.41297 | -86.34601 | 34543 ft | 558 kts | 79° |
| 2026-05-06 16:18 | 35.41886 | -86.29876 | 34737 ft | 558 kts | 80° |
| 2026-05-06 16:18 | 35.42458 | -86.25248 | 34935 ft | 558 kts | 81° |
| 2026-05-06 16:19 | 35.43653 | -86.15851 | 34967 ft | 560 kts | 80° |
| 2026-05-06 16:19 | 35.44853 | -86.06435 | 34968 ft | 564 kts | 79° |
| 2026-05-06 16:20 | 35.46040 | -85.96925 | 34968 ft | 567 kts | 80° |
| 2026-05-06 16:20 | 35.47198 | -85.87319 | 34968 ft | 570 kts | 80° |
| 2026-05-06 16:21 | 35.48389 | -85.77714 | 34969 ft | 573 kts | 79° |
| 2026-05-06 16:21 | 35.49679 | -85.68079 | 34972 ft | 575 kts | 77° |
| 2026-05-06 16:22 | 35.51110 | -85.58453 | 34973 ft | 574 kts | 77° |
| 2026-05-06 16:22 | 35.52444 | -85.48882 | 34973 ft | 570 kts | 79° |
| 2026-05-06 16:23 | 35.53650 | -85.39296 | 34963 ft | 572 kts | 79° |
| 2026-05-06 16:23 | 35.54829 | -85.29648 | 34964 ft | 574 kts | 79° |
| 2026-05-06 16:24 | 35.55988 | -85.19930 | 34955 ft | 575 kts | 80° |
| 2026-05-06 16:24 | 35.57078 | -85.10294 | 34949 ft | 572 kts | 81° |
| 2026-05-06 16:25 | 35.58152 | -85.00622 | 34958 ft | 571 kts | 80° |
| 2026-05-06 16:25 | 35.59261 | -84.90974 | 34955 ft | 572 kts | 79° |
| 2026-05-06 16:26 | 35.60396 | -84.81339 | 34964 ft | 572 kts | 79° |
| 2026-05-06 16:26 | 35.61464 | -84.71679 | 34964 ft | 573 kts | 81° |
| 2026-05-06 16:27 | 35.62547 | -84.62022 | 34970 ft | 570 kts | 79° |
| 2026-05-06 16:27 | 35.63647 | -84.52432 | 34966 ft | 571 kts | 79° |
| 2026-05-06 16:28 | 35.64729 | -84.42788 | 34979 ft | 573 kts | 79° |
| 2026-05-06 16:28 | 35.65800 | -84.33087 | 34961 ft | 571 kts | 80° |
| 2026-05-06 16:29 | 35.66322 | -84.28268 | 34720 ft | 565 kts | 80° |
| 2026-05-06 16:29 | 35.66837 | -84.23530 | 34365 ft | 556 kts | 81° |
| 2026-05-06 16:29 | 35.67342 | -84.18858 | 34020 ft | 548 kts | 80° |
| 2026-05-06 16:29 | 35.67844 | -84.14307 | 33630 ft | 543 kts | 80° |
| 2026-05-06 16:30 | 35.68361 | -84.09675 | 32762 ft | 547 kts | 81° |
| 2026-05-06 16:30 | 35.68699 | -84.06624 | 32235 ft | 548 kts | 80° |
| 2026-05-06 16:30 | 35.69375 | -84.00472 | 31308 ft | 546 kts | 81° |
| 2026-05-06 16:30 | 35.69871 | -83.95866 | 30689 ft | 542 kts | 81° |
| 2026-05-06 16:31 | 35.70348 | -83.91254 | 29998 ft | 539 kts | 82° |
| 2026-05-06 16:31 | 35.70803 | -83.86726 | 29345 ft | 536 kts | 83° |
| 2026-05-06 16:31 | 35.71257 | -83.82259 | 28907 ft | 527 kts | 82° |
| 2026-05-06 16:31 | 35.71723 | -83.77786 | 28215 ft | 526 kts | 82° |
| 2026-05-06 16:32 | 35.72189 | -83.73332 | 27738 ft | 518 kts | 82° |
| 2026-05-06 16:32 | 35.72652 | -83.68982 | 27328 ft | 510 kts | 81° |
| 2026-05-06 16:32 | 35.73119 | -83.64706 | 26761 ft | 506 kts | 81° |
| 2026-05-06 16:32 | 35.73609 | -83.60480 | 26092 ft | 505 kts | 81° |
| 2026-05-06 16:33 | 35.74079 | -83.56212 | 25529 ft | 500 kts | 82° |
| 2026-05-06 16:33 | 35.74507 | -83.51989 | 24973 ft | 496 kts | 83° |
| 2026-05-06 16:33 | 35.74915 | -83.47803 | 24424 ft | 491 kts | 83° |
| 2026-05-06 16:34 | 35.75735 | -83.39516 | 23277 ft | 484 kts | 82° |
| 2026-05-06 16:34 | 35.76141 | -83.35450 | 22758 ft | 479 kts | 82° |
| 2026-05-06 16:34 | 35.76553 | -83.31397 | 22279 ft | 473 kts | 82° |
| 2026-05-06 16:34 | 35.76964 | -83.27415 | 21684 ft | 470 kts | 82° |
| 2026-05-06 16:35 | 35.77359 | -83.23483 | 21101 ft | 468 kts | 82° |
| 2026-05-06 16:35 | 35.77748 | -83.19532 | 20526 ft | 465 kts | 82° |
| 2026-05-06 16:35 | 35.78262 | -83.14294 | 19629 ft | 465 kts | 82° |
| 2026-05-06 16:35 | 35.78525 | -83.11640 | 19132 ft | 466 kts | 82° |
| 2026-05-06 16:36 | 35.78729 | -83.07667 | 18465 ft | 465 kts | 91° |
| 2026-05-06 16:36 | 35.78394 | -83.03738 | 17415 ft | 473 kts | 103° |
| 2026-05-06 16:36 | 35.77503 | -82.99858 | 16589 ft | 471 kts | 112° |
| 2026-05-06 16:36 | 35.76397 | -82.96102 | 16117 ft | 461 kts | 114° |
| 2026-05-06 16:37 | 35.75271 | -82.92484 | 15551 ft | 456 kts | 114° |
| 2026-05-06 16:37 | 35.74128 | -82.88811 | 14506 ft | 456 kts | 114° |
| 2026-05-06 16:37 | 35.73045 | -82.85226 | 13413 ft | 455 kts | 113° |
| 2026-05-06 16:37 | 35.71966 | -82.81552 | 12275 ft | 452 kts | 112° |
| 2026-05-06 16:38 | 35.70933 | -82.77972 | 11179 ft | 448 kts | 112° |
| 2026-05-06 16:38 | 35.69910 | -82.74415 | 10114 ft | 441 kts | 111° |
| 2026-05-06 16:38 | 35.68887 | -82.70924 | 9468 ft | 423 kts | 112° |
| 2026-05-06 16:38 | 35.67784 | -82.67670 | 9143 ft | 398 kts | 120° |
| 2026-05-06 16:39 | 35.66274 | -82.65011 | 8857 ft | 369 kts | 141° |
| 2026-05-06 16:39 | 35.64275 | -82.63234 | 8249 ft | 349 kts | 161° |
| 2026-05-06 16:39 | 35.62024 | -82.62201 | 7493 ft | 340 kts | 169° |
| 2026-05-06 16:39 | 35.59771 | -82.61370 | 6725 ft | 337 kts | 168° |
| 2026-05-06 16:40 | 35.57568 | -82.60506 | 5959 ft | 335 kts | 166° |
| 2026-05-06 16:40 | 35.55371 | -82.59558 | 5106 ft | 335 kts | 163° |
| 2026-05-06 16:40 | 35.53227 | -82.58541 | 4274 ft | 332 kts | 161° |
| 2026-05-06 16:40 | 35.51115 | -82.57587 | 3954 ft | 307 kts | 162° |
| 2026-05-06 16:41 | 35.49216 | -82.56723 | 3944 ft | 277 kts | 162° |
| 2026-05-06 16:41 | 35.47484 | -82.55942 | 3940 ft | 248 kts | 163° |
| 2026-05-06 16:41 | 35.45985 | -82.55265 | 3937 ft | 211 kts | 162° |
| 2026-05-06 16:41 | 35.44628 | -82.54513 | 2586 ft | 236 kts | 154° |
| 2026-05-06 16:42 | 35.43613 | -82.53472 | 3268 ft | 174 kts | 128° |